sensor_id;sensor_type;location;lat;lon;timestamp;P1;durP1;ratioP1;P2;durP2;ratioP2
41687;SDS011;27371;42.686;23.362;2022-11-13T00:01:47;10.88;;;7.18;;
41687;SDS011;27371;42.686;23.362;2022-11-13T00:04:12;8.73;;;7.30;;
41687;SDS011;27371;42.686;23.362;2022-11-13T00:06:37;8.45;;;6.70;;
41687;SDS011;27371;42.686;23.362;2022-11-13T00:09:03;9.48;;;6.78;;
41687;SDS011;27371;42.686;23.362;2022-11-13T00:11:28;62.38;;;42.85;;
41687;SDS011;27371;42.686;23.362;2022-11-13T00:13:54;8.80;;;7.30;;
41687;SDS011;27371;42.686;23.362;2022-11-13T00:16:20;9.45;;;7.80;;
41687;SDS011;27371;42.686;23.362;2022-11-13T00:18:46;9.35;;;7.97;;
41687;SDS011;27371;42.686;23.362;2022-11-13T00:21:13;9.77;;;7.68;;
41687;SDS011;27371;42.686;23.362;2022-11-13T00:23:40;10.80;;;9.07;;
41687;SDS011;27371;42.686;23.362;2022-11-13T00:26:07;10.75;;;7.85;;
41687;SDS011;27371;42.686;23.362;2022-11-13T00:28:35;10.55;;;8.13;;
41687;SDS011;27371;42.686;23.362;2022-11-13T00:31:01;9.80;;;8.10;;
41687;SDS011;27371;42.686;23.362;2022-11-13T00:33:27;8.77;;;7.63;;
41687;SDS011;27371;42.686;23.362;2022-11-13T00:35:53;9.30;;;7.65;;
41687;SDS011;27371;42.686;23.362;2022-11-13T00:38:25;10.23;;;7.72;;
41687;SDS011;27371;42.686;23.362;2022-11-13T00:40:50;11.05;;;8.80;;
41687;SDS011;27371;42.686;23.362;2022-11-13T00:43:16;14.75;;;8.70;;
41687;SDS011;27371;42.686;23.362;2022-11-13T00:45:41;10.50;;;8.35;;
41687;SDS011;27371;42.686;23.362;2022-11-13T00:48:07;10.13;;;8.50;;
41687;SDS011;27371;42.686;23.362;2022-11-13T00:50:32;11.75;;;8.70;;
41687;SDS011;27371;42.686;23.362;2022-11-13T00:52:57;10.05;;;8.27;;
41687;SDS011;27371;42.686;23.362;2022-11-13T00:55:23;14.07;;;8.27;;
41687;SDS011;27371;42.686;23.362;2022-11-13T00:57:48;10.10;;;8.88;;
41687;SDS011;27371;42.686;23.362;2022-11-13T01:02:39;11.43;;;9.30;;
41687;SDS011;27371;42.686;23.362;2022-11-13T01:05:05;14.07;;;9.45;;
41687;SDS011;27371;42.686;23.362;2022-11-13T01:07:30;10.70;;;8.98;;
41687;SDS011;27371;42.686;23.362;2022-11-13T01:09:56;11.25;;;8.73;;
41687;SDS011;27371;42.686;23.362;2022-11-13T01:12:22;10.05;;;8.95;;
41687;SDS011;27371;42.686;23.362;2022-11-13T01:14:47;11.63;;;9.40;;
41687;SDS011;27371;42.686;23.362;2022-11-13T01:17:13;10.95;;;8.95;;
41687;SDS011;27371;42.686;23.362;2022-11-13T01:19:38;13.55;;;10.52;;
41687;SDS011;27371;42.686;23.362;2022-11-13T01:22:03;11.82;;;8.98;;
41687;SDS011;27371;42.686;23.362;2022-11-13T01:24:29;12.50;;;9.45;;
41687;SDS011;27371;42.686;23.362;2022-11-13T01:26:55;11.43;;;7.88;;
41687;SDS011;27371;42.686;23.362;2022-11-13T01:29:21;10.35;;;9.18;;
41687;SDS011;27371;42.686;23.362;2022-11-13T01:31:46;9.80;;;8.18;;
41687;SDS011;27371;42.686;23.362;2022-11-13T01:34:12;9.77;;;8.07;;
41687;SDS011;27371;42.686;23.362;2022-11-13T01:36:37;11.50;;;8.07;;
41687;SDS011;27371;42.686;23.362;2022-11-13T01:39:02;9.90;;;7.90;;
41687;SDS011;27371;42.686;23.362;2022-11-13T01:41:29;9.57;;;7.35;;
41687;SDS011;27371;42.686;23.362;2022-11-13T01:43:57;12.48;;;7.97;;
41687;SDS011;27371;42.686;23.362;2022-11-13T01:46:24;7.45;;;6.70;;
41687;SDS011;27371;42.686;23.362;2022-11-13T01:48:51;8.63;;;7.07;;
41687;SDS011;27371;42.686;23.362;2022-11-13T01:51:38;7.88;;;6.72;;
41687;SDS011;27371;42.686;23.362;2022-11-13T01:54:08;9.40;;;6.80;;
41687;SDS011;27371;42.686;23.362;2022-11-13T01:56:37;10.05;;;7.00;;
41687;SDS011;27371;42.686;23.362;2022-11-13T02:01:41;9.30;;;7.00;;
41687;SDS011;27371;42.686;23.362;2022-11-13T02:04:07;9.98;;;7.30;;
41687;SDS011;27371;42.686;23.362;2022-11-13T02:06:43;8.27;;;6.55;;
41687;SDS011;27371;42.686;23.362;2022-11-13T02:09:12;9.23;;;6.47;;
41687;SDS011;27371;42.686;23.362;2022-11-13T02:11:39;9.45;;;6.68;;
41687;SDS011;27371;42.686;23.362;2022-11-13T02:14:06;11.82;;;7.57;;
41687;SDS011;27371;42.686;23.362;2022-11-13T02:16:33;10.35;;;7.18;;
41687;SDS011;27371;42.686;23.362;2022-11-13T02:19:05;9.00;;;7.03;;
41687;SDS011;27371;42.686;23.362;2022-11-13T02:22:40;10.23;;;7.03;;
41687;SDS011;27371;42.686;23.362;2022-11-13T02:24:51;10.10;;;6.97;;
41687;SDS011;27371;42.686;23.362;2022-11-13T02:27:25;14.40;;;7.47;;
41687;SDS011;27371;42.686;23.362;2022-11-13T02:29:56;9.30;;;6.70;;
41687;SDS011;27371;42.686;23.362;2022-11-13T02:32:22;9.52;;;7.55;;
41687;SDS011;27371;42.686;23.362;2022-11-13T02:34:47;11.98;;;7.20;;
41687;SDS011;27371;42.686;23.362;2022-11-13T02:37:13;10.95;;;6.82;;
41687;SDS011;27371;42.686;23.362;2022-11-13T02:39:38;10.63;;;7.68;;
41687;SDS011;27371;42.686;23.362;2022-11-13T02:42:04;11.48;;;7.15;;
41687;SDS011;27371;42.686;23.362;2022-11-13T02:44:29;12.02;;;7.53;;
41687;SDS011;27371;42.686;23.362;2022-11-13T02:46:55;8.75;;;6.95;;
41687;SDS011;27371;42.686;23.362;2022-11-13T02:49:20;8.90;;;6.85;;
41687;SDS011;27371;42.686;23.362;2022-11-13T02:51:46;10.25;;;8.23;;
41687;SDS011;27371;42.686;23.362;2022-11-13T02:54:11;9.50;;;7.10;;
41687;SDS011;27371;42.686;23.362;2022-11-13T02:56:37;9.25;;;7.40;;
41687;SDS011;27371;42.686;23.362;2022-11-13T02:59:02;9.77;;;6.80;;
41687;SDS011;27371;42.686;23.362;2022-11-13T03:01:28;7.18;;;6.22;;
41687;SDS011;27371;42.686;23.362;2022-11-13T03:03:53;9.95;;;7.50;;
41687;SDS011;27371;42.686;23.362;2022-11-13T03:06:19;8.85;;;7.13;;
41687;SDS011;27371;42.686;23.362;2022-11-13T03:08:44;9.15;;;7.55;;
41687;SDS011;27371;42.686;23.362;2022-11-13T03:11:10;10.07;;;7.32;;
41687;SDS011;27371;42.686;23.362;2022-11-13T03:13:36;8.60;;;6.72;;
41687;SDS011;27371;42.686;23.362;2022-11-13T03:16:09;10.65;;;7.70;;
41687;SDS011;27371;42.686;23.362;2022-11-13T03:18:37;9.38;;;7.25;;
41687;SDS011;27371;42.686;23.362;2022-11-13T03:21:07;8.77;;;6.63;;
41687;SDS011;27371;42.686;23.362;2022-11-13T03:23:34;13.77;;;7.13;;
41687;SDS011;27371;42.686;23.362;2022-11-13T03:26:04;8.40;;;7.07;;
41687;SDS011;27371;42.686;23.362;2022-11-13T03:28:35;11.85;;;7.00;;
41687;SDS011;27371;42.686;23.362;2022-11-13T03:31:01;9.80;;;6.93;;
41687;SDS011;27371;42.686;23.362;2022-11-13T03:33:28;8.00;;;7.03;;
41687;SDS011;27371;42.686;23.362;2022-11-13T03:35:53;8.02;;;6.93;;
41687;SDS011;27371;42.686;23.362;2022-11-13T03:38:19;9.98;;;6.95;;
41687;SDS011;27371;42.686;23.362;2022-11-13T03:40:45;8.50;;;7.32;;
41687;SDS011;27371;42.686;23.362;2022-11-13T03:43:11;9.18;;;6.95;;
41687;SDS011;27371;42.686;23.362;2022-11-13T03:45:36;10.48;;;7.18;;
41687;SDS011;27371;42.686;23.362;2022-11-13T03:48:02;11.07;;;7.10;;
41687;SDS011;27371;42.686;23.362;2022-11-13T03:50:27;8.85;;;7.05;;
41687;SDS011;27371;42.686;23.362;2022-11-13T03:52:53;9.00;;;7.28;;
41687;SDS011;27371;42.686;23.362;2022-11-13T03:55:18;9.20;;;7.22;;
41687;SDS011;27371;42.686;23.362;2022-11-13T03:57:45;8.35;;;6.97;;
41687;SDS011;27371;42.686;23.362;2022-11-13T04:00:11;8.73;;;7.13;;
41687;SDS011;27371;42.686;23.362;2022-11-13T04:02:37;9.48;;;8.18;;
41687;SDS011;27371;42.686;23.362;2022-11-13T04:05:03;7.88;;;7.00;;
41687;SDS011;27371;42.686;23.362;2022-11-13T04:07:28;8.60;;;6.53;;
41687;SDS011;27371;42.686;23.362;2022-11-13T04:09:54;11.50;;;7.00;;
41687;SDS011;27371;42.686;23.362;2022-11-13T04:12:19;10.98;;;7.07;;
41687;SDS011;27371;42.686;23.362;2022-11-13T04:14:45;8.82;;;6.68;;
41687;SDS011;27371;42.686;23.362;2022-11-13T04:17:10;7.55;;;6.60;;
41687;SDS011;27371;42.686;23.362;2022-11-13T04:19:35;9.68;;;6.90;;
41687;SDS011;27371;42.686;23.362;2022-11-13T04:22:01;10.10;;;7.55;;
41687;SDS011;27371;42.686;23.362;2022-11-13T04:24:26;9.18;;;7.57;;
41687;SDS011;27371;42.686;23.362;2022-11-13T04:26:51;9.20;;;7.72;;
41687;SDS011;27371;42.686;23.362;2022-11-13T04:29:17;10.55;;;7.93;;
41687;SDS011;27371;42.686;23.362;2022-11-13T04:31:43;11.65;;;7.85;;
41687;SDS011;27371;42.686;23.362;2022-11-13T04:34:08;12.32;;;8.30;;
41687;SDS011;27371;42.686;23.362;2022-11-13T04:36:34;9.40;;;7.85;;
41687;SDS011;27371;42.686;23.362;2022-11-13T04:38:59;11.18;;;8.20;;
41687;SDS011;27371;42.686;23.362;2022-11-13T04:41:24;10.07;;;8.15;;
41687;SDS011;27371;42.686;23.362;2022-11-13T04:44:08;10.73;;;8.57;;
41687;SDS011;27371;42.686;23.362;2022-11-13T04:46:34;11.07;;;8.93;;
41687;SDS011;27371;42.686;23.362;2022-11-13T04:48:59;15.60;;;9.40;;
41687;SDS011;27371;42.686;23.362;2022-11-13T04:51:25;11.48;;;10.00;;
41687;SDS011;27371;42.686;23.362;2022-11-13T04:53:50;12.90;;;10.23;;
41687;SDS011;27371;42.686;23.362;2022-11-13T04:56:16;12.43;;;11.13;;
41687;SDS011;27371;42.686;23.362;2022-11-13T04:58:41;14.18;;;11.30;;
41687;SDS011;27371;42.686;23.362;2022-11-13T05:01:06;20.58;;;12.20;;
41687;SDS011;27371;42.686;23.362;2022-11-13T05:03:32;15.50;;;13.65;;
41687;SDS011;27371;42.686;23.362;2022-11-13T05:06:01;16.05;;;13.10;;
41687;SDS011;27371;42.686;23.362;2022-11-13T05:08:31;17.65;;;13.88;;
41687;SDS011;27371;42.686;23.362;2022-11-13T05:10:56;17.70;;;14.57;;
41687;SDS011;27371;42.686;23.362;2022-11-13T05:13:22;20.25;;;15.38;;
41687;SDS011;27371;42.686;23.362;2022-11-13T05:15:48;16.88;;;13.80;;
41687;SDS011;27371;42.686;23.362;2022-11-13T05:18:13;17.35;;;14.27;;
41687;SDS011;27371;42.686;23.362;2022-11-13T05:20:39;18.65;;;14.10;;
41687;SDS011;27371;42.686;23.362;2022-11-13T05:23:04;17.98;;;14.80;;
41687;SDS011;27371;42.686;23.362;2022-11-13T05:25:30;19.65;;;14.45;;
41687;SDS011;27371;42.686;23.362;2022-11-13T05:27:56;19.52;;;15.60;;
41687;SDS011;27371;42.686;23.362;2022-11-13T05:30:22;20.73;;;15.05;;
41687;SDS011;27371;42.686;23.362;2022-11-13T05:32:48;15.73;;;13.80;;
41687;SDS011;27371;42.686;23.362;2022-11-13T05:35:13;18.25;;;14.90;;
41687;SDS011;27371;42.686;23.362;2022-11-13T05:37:39;16.73;;;14.32;;
41687;SDS011;27371;42.686;23.362;2022-11-13T05:40:05;19.70;;;15.63;;
41687;SDS011;27371;42.686;23.362;2022-11-13T05:42:30;22.38;;;15.98;;
41687;SDS011;27371;42.686;23.362;2022-11-13T05:44:56;20.48;;;16.05;;
41687;SDS011;27371;42.686;23.362;2022-11-13T05:47:21;27.27;;;16.92;;
41687;SDS011;27371;42.686;23.362;2022-11-13T05:49:47;18.13;;;15.25;;
41687;SDS011;27371;42.686;23.362;2022-11-13T05:52:15;20.13;;;15.75;;
41687;SDS011;27371;42.686;23.362;2022-11-13T05:54:40;19.75;;;15.95;;
41687;SDS011;27371;42.686;23.362;2022-11-13T05:57:06;18.00;;;15.18;;
41687;SDS011;27371;42.686;23.362;2022-11-13T05:59:31;19.40;;;15.43;;
41687;SDS011;27371;42.686;23.362;2022-11-13T06:01:56;18.45;;;15.52;;
41687;SDS011;27371;42.686;23.362;2022-11-13T06:04:22;18.85;;;15.10;;
41687;SDS011;27371;42.686;23.362;2022-11-13T06:06:47;17.38;;;14.85;;
41687;SDS011;27371;42.686;23.362;2022-11-13T06:09:13;18.38;;;14.50;;
41687;SDS011;27371;42.686;23.362;2022-11-13T06:11:41;20.58;;;14.48;;
41687;SDS011;27371;42.686;23.362;2022-11-13T06:14:08;20.08;;;15.00;;
41687;SDS011;27371;42.686;23.362;2022-11-13T06:16:34;19.92;;;16.25;;
41687;SDS011;27371;42.686;23.362;2022-11-13T06:19:02;17.75;;;15.23;;
41687;SDS011;27371;42.686;23.362;2022-11-13T06:21:30;20.13;;;16.05;;
41687;SDS011;27371;42.686;23.362;2022-11-13T06:23:57;22.13;;;15.82;;
41687;SDS011;27371;42.686;23.362;2022-11-13T06:26:25;18.05;;;15.30;;
41687;SDS011;27371;42.686;23.362;2022-11-13T06:28:52;19.27;;;14.70;;
41687;SDS011;27371;42.686;23.362;2022-11-13T06:31:19;19.40;;;15.57;;
41687;SDS011;27371;42.686;23.362;2022-11-13T06:33:49;19.60;;;15.80;;
41687;SDS011;27371;42.686;23.362;2022-11-13T06:36:16;18.60;;;14.75;;
41687;SDS011;27371;42.686;23.362;2022-11-13T06:38:43;18.70;;;15.13;;
41687;SDS011;27371;42.686;23.362;2022-11-13T06:41:10;20.42;;;15.18;;
41687;SDS011;27371;42.686;23.362;2022-11-13T06:43:37;19.33;;;15.50;;
41687;SDS011;27371;42.686;23.362;2022-11-13T06:46:04;21.92;;;15.45;;
41687;SDS011;27371;42.686;23.362;2022-11-13T06:48:31;20.38;;;16.45;;
41687;SDS011;27371;42.686;23.362;2022-11-13T06:51:00;21.45;;;15.90;;
41687;SDS011;27371;42.686;23.362;2022-11-13T06:53:28;20.23;;;16.35;;
41687;SDS011;27371;42.686;23.362;2022-11-13T06:55:54;22.60;;;15.63;;
41687;SDS011;27371;42.686;23.362;2022-11-13T06:58:19;18.35;;;15.00;;
41687;SDS011;27371;42.686;23.362;2022-11-13T07:00:45;21.60;;;15.32;;
41687;SDS011;27371;42.686;23.362;2022-11-13T07:03:17;21.00;;;15.68;;
41687;SDS011;27371;42.686;23.362;2022-11-13T07:05:46;16.55;;;14.65;;
41687;SDS011;27371;42.686;23.362;2022-11-13T07:08:12;21.48;;;15.13;;
41687;SDS011;27371;42.686;23.362;2022-11-13T07:10:38;22.05;;;14.35;;
41687;SDS011;27371;42.686;23.362;2022-11-13T07:13:04;19.92;;;15.45;;
41687;SDS011;27371;42.686;23.362;2022-11-13T07:15:32;21.88;;;14.45;;
41687;SDS011;27371;42.686;23.362;2022-11-13T07:18:02;21.20;;;15.32;;
41687;SDS011;27371;42.686;23.362;2022-11-13T07:20:29;21.63;;;14.35;;
41687;SDS011;27371;42.686;23.362;2022-11-13T07:22:56;19.38;;;15.18;;
41687;SDS011;27371;42.686;23.362;2022-11-13T07:25:26;22.17;;;15.90;;
41687;SDS011;27371;42.686;23.362;2022-11-13T07:27:55;21.52;;;15.02;;
41687;SDS011;27371;42.686;23.362;2022-11-13T07:30:21;25.90;;;16.08;;
41687;SDS011;27371;42.686;23.362;2022-11-13T07:32:47;19.05;;;15.25;;
41687;SDS011;27371;42.686;23.362;2022-11-13T07:35:15;18.85;;;14.73;;
41687;SDS011;27371;42.686;23.362;2022-11-13T07:37:41;19.63;;;14.98;;
41687;SDS011;27371;42.686;23.362;2022-11-13T07:40:07;19.30;;;15.93;;
41687;SDS011;27371;42.686;23.362;2022-11-13T07:42:36;19.02;;;14.60;;
41687;SDS011;27371;42.686;23.362;2022-11-13T07:45:02;18.45;;;15.18;;
41687;SDS011;27371;42.686;23.362;2022-11-13T07:47:28;19.98;;;14.55;;
41687;SDS011;27371;42.686;23.362;2022-11-13T07:49:54;19.17;;;14.93;;
41687;SDS011;27371;42.686;23.362;2022-11-13T07:52:19;17.38;;;14.35;;
41687;SDS011;27371;42.686;23.362;2022-11-13T07:54:47;20.67;;;14.98;;
41687;SDS011;27371;42.686;23.362;2022-11-13T07:57:13;17.42;;;14.40;;
41687;SDS011;27371;42.686;23.362;2022-11-13T07:59:39;19.77;;;15.45;;
41687;SDS011;27371;42.686;23.362;2022-11-13T08:02:04;20.80;;;15.60;;
41687;SDS011;27371;42.686;23.362;2022-11-13T08:04:30;20.48;;;14.95;;
41687;SDS011;27371;42.686;23.362;2022-11-13T08:06:56;17.13;;;15.15;;
41687;SDS011;27371;42.686;23.362;2022-11-13T08:09:21;20.13;;;16.30;;
41687;SDS011;27371;42.686;23.362;2022-11-13T08:11:47;18.70;;;15.07;;
41687;SDS011;27371;42.686;23.362;2022-11-13T08:14:15;21.15;;;15.13;;
41687;SDS011;27371;42.686;23.362;2022-11-13T08:16:41;19.60;;;15.38;;
41687;SDS011;27371;42.686;23.362;2022-11-13T08:19:06;17.42;;;13.95;;
41687;SDS011;27371;42.686;23.362;2022-11-13T08:21:33;16.70;;;14.25;;
41687;SDS011;27371;42.686;23.362;2022-11-13T08:23:59;21.08;;;14.68;;
41687;SDS011;27371;42.686;23.362;2022-11-13T08:26:31;16.40;;;14.63;;
41687;SDS011;27371;42.686;23.362;2022-11-13T08:28:56;17.60;;;14.15;;
41687;SDS011;27371;42.686;23.362;2022-11-13T08:31:25;18.33;;;15.23;;
41687;SDS011;27371;42.686;23.362;2022-11-13T08:33:50;17.90;;;15.05;;
41687;SDS011;27371;42.686;23.362;2022-11-13T08:36:16;18.23;;;15.95;;
41687;SDS011;27371;42.686;23.362;2022-11-13T08:38:41;20.63;;;16.40;;
41687;SDS011;27371;42.686;23.362;2022-11-13T08:41:07;19.30;;;17.00;;
41687;SDS011;27371;42.686;23.362;2022-11-13T08:43:32;21.73;;;17.10;;
41687;SDS011;27371;42.686;23.362;2022-11-13T08:45:58;20.38;;;16.00;;
41687;SDS011;27371;42.686;23.362;2022-11-13T08:48:23;18.75;;;16.45;;
41687;SDS011;27371;42.686;23.362;2022-11-13T08:50:53;17.52;;;15.65;;
41687;SDS011;27371;42.686;23.362;2022-11-13T08:53:19;17.73;;;15.63;;
41687;SDS011;27371;42.686;23.362;2022-11-13T08:55:45;19.05;;;16.27;;
41687;SDS011;27371;42.686;23.362;2022-11-13T08:58:11;25.55;;;17.55;;
41687;SDS011;27371;42.686;23.362;2022-11-13T09:00:37;17.63;;;15.73;;
41687;SDS011;27371;42.686;23.362;2022-11-13T09:03:03;20.20;;;16.02;;
41687;SDS011;27371;42.686;23.362;2022-11-13T09:05:28;18.45;;;16.50;;
41687;SDS011;27371;42.686;23.362;2022-11-13T09:07:57;20.48;;;18.25;;
41687;SDS011;27371;42.686;23.362;2022-11-13T09:10:25;20.15;;;17.98;;
41687;SDS011;27371;42.686;23.362;2022-11-13T09:12:54;17.58;;;15.60;;
41687;SDS011;27371;42.686;23.362;2022-11-13T09:15:25;18.43;;;15.50;;
41687;SDS011;27371;42.686;23.362;2022-11-13T09:17:51;21.70;;;16.88;;
41687;SDS011;27371;42.686;23.362;2022-11-13T09:20:20;24.95;;;17.05;;
41687;SDS011;27371;42.686;23.362;2022-11-13T09:22:45;19.48;;;15.95;;
41687;SDS011;27371;42.686;23.362;2022-11-13T09:25:11;18.33;;;16.42;;
41687;SDS011;27371;42.686;23.362;2022-11-13T09:27:36;17.98;;;14.95;;
41687;SDS011;27371;42.686;23.362;2022-11-13T09:30:02;19.60;;;15.88;;
41687;SDS011;27371;42.686;23.362;2022-11-13T09:32:27;18.63;;;16.63;;
41687;SDS011;27371;42.686;23.362;2022-11-13T09:34:53;15.77;;;14.10;;
41687;SDS011;27371;42.686;23.362;2022-11-13T09:37:18;17.88;;;15.50;;
41687;SDS011;27371;42.686;23.362;2022-11-13T09:39:44;18.42;;;14.57;;
41687;SDS011;27371;42.686;23.362;2022-11-13T09:44:42;17.33;;;15.45;;
41687;SDS011;27371;42.686;23.362;2022-11-13T09:47:23;16.77;;;14.73;;
41687;SDS011;27371;42.686;23.362;2022-11-13T09:50:02;18.77;;;15.32;;
41687;SDS011;27371;42.686;23.362;2022-11-13T09:52:36;16.30;;;14.60;;
41687;SDS011;27371;42.686;23.362;2022-11-13T09:55:08;18.92;;;16.15;;
41687;SDS011;27371;42.686;23.362;2022-11-13T10:00:26;18.05;;;16.15;;
41687;SDS011;27371;42.686;23.362;2022-11-13T10:03:11;19.75;;;16.33;;
41687;SDS011;27371;42.686;23.362;2022-11-13T10:05:43;18.48;;;16.48;;
41687;SDS011;27371;42.686;23.362;2022-11-13T10:13:10;20.77;;;16.83;;
41687;SDS011;27371;42.686;23.362;2022-11-13T10:15:40;20.30;;;16.90;;
41687;SDS011;27371;42.686;23.362;2022-11-13T10:18:16;19.55;;;16.15;;
41687;SDS011;27371;42.686;23.362;2022-11-13T10:23:14;20.15;;;17.67;;
41687;SDS011;27371;42.686;23.362;2022-11-13T10:25:43;17.48;;;15.68;;
41687;SDS011;27371;42.686;23.362;2022-11-13T10:28:17;21.90;;;16.83;;
41687;SDS011;27371;42.686;23.362;2022-11-13T10:33:59;22.92;;;17.00;;
41687;SDS011;27371;42.686;23.362;2022-11-13T10:39:09;21.50;;;17.58;;
41687;SDS011;27371;42.686;23.362;2022-11-13T10:41:51;19.10;;;17.00;;
41687;SDS011;27371;42.686;23.362;2022-11-13T10:47:15;20.13;;;17.95;;
41687;SDS011;27371;42.686;23.362;2022-11-13T10:49:42;19.15;;;15.98;;
41687;SDS011;27371;42.686;23.362;2022-11-13T10:52:15;19.73;;;17.23;;
41687;SDS011;27371;42.686;23.362;2022-11-13T10:54:48;23.52;;;17.05;;
41687;SDS011;27371;42.686;23.362;2022-11-13T10:57:33;18.95;;;15.80;;
41687;SDS011;27371;42.686;23.362;2022-11-13T11:00:01;17.70;;;15.82;;
41687;SDS011;27371;42.686;23.362;2022-11-13T11:02:47;16.83;;;15.02;;
41687;SDS011;27371;42.686;23.362;2022-11-13T11:05:19;23.02;;;17.98;;
41687;SDS011;27371;42.686;23.362;2022-11-13T11:07:47;21.80;;;19.02;;
41687;SDS011;27371;42.686;23.362;2022-11-13T11:10:26;23.80;;;18.67;;
41687;SDS011;27371;42.686;23.362;2022-11-13T11:12:56;22.30;;;18.00;;
41687;SDS011;27371;42.686;23.362;2022-11-13T11:15:39;18.95;;;16.83;;
41687;SDS011;27371;42.686;23.362;2022-11-13T11:18:27;18.20;;;16.27;;
41687;SDS011;27371;42.686;23.362;2022-11-13T11:21:02;19.48;;;17.48;;
41687;SDS011;27371;42.686;23.362;2022-11-13T11:26:38;23.90;;;18.30;;
41687;SDS011;27371;42.686;23.362;2022-11-13T11:29:20;21.55;;;18.85;;
41687;SDS011;27371;42.686;23.362;2022-11-13T11:31:59;18.95;;;16.95;;
41687;SDS011;27371;42.686;23.362;2022-11-13T11:37:23;19.58;;;17.10;;
41687;SDS011;27371;42.686;23.362;2022-11-13T11:40:16;18.75;;;16.83;;
41687;SDS011;27371;42.686;23.362;2022-11-13T11:43:18;20.23;;;17.52;;
41687;SDS011;27371;42.686;23.362;2022-11-13T11:45:48;22.33;;;18.23;;
41687;SDS011;27371;42.686;23.362;2022-11-13T11:48:17;19.27;;;17.20;;
41687;SDS011;27371;42.686;23.362;2022-11-13T11:50:49;18.90;;;16.65;;
41687;SDS011;27371;42.686;23.362;2022-11-13T11:53:25;19.92;;;16.33;;
41687;SDS011;27371;42.686;23.362;2022-11-13T12:03:54;19.25;;;17.25;;
41687;SDS011;27371;42.686;23.362;2022-11-13T12:06:38;19.33;;;15.88;;
41687;SDS011;27371;42.686;23.362;2022-11-13T12:09:18;19.00;;;16.80;;
41687;SDS011;27371;42.686;23.362;2022-11-13T12:26:13;19.52;;;17.42;;
41687;SDS011;27371;42.686;23.362;2022-11-13T12:31:47;18.98;;;16.30;;
41687;SDS011;27371;42.686;23.362;2022-11-13T12:37:29;18.38;;;16.33;;
41687;SDS011;27371;42.686;23.362;2022-11-13T12:40:07;19.52;;;16.33;;
41687;SDS011;27371;42.686;23.362;2022-11-13T12:50:54;19.27;;;16.05;;
41687;SDS011;27371;42.686;23.362;2022-11-13T12:53:28;21.95;;;15.73;;
41687;SDS011;27371;42.686;23.362;2022-11-13T12:55:59;21.67;;;16.13;;
41687;SDS011;27371;42.686;23.362;2022-11-13T12:58:28;19.92;;;15.75;;
41687;SDS011;27371;42.686;23.362;2022-11-13T13:01:29;18.60;;;16.33;;
41687;SDS011;27371;42.686;23.362;2022-11-13T13:11:58;17.35;;;14.93;;
41687;SDS011;27371;42.686;23.362;2022-11-13T13:14:35;16.75;;;14.45;;
41687;SDS011;27371;42.686;23.362;2022-11-13T13:19:39;21.83;;;15.23;;
41687;SDS011;27371;42.686;23.362;2022-11-13T13:22:22;17.48;;;14.20;;
41687;SDS011;27371;42.686;23.362;2022-11-13T13:25:05;16.70;;;13.65;;
41687;SDS011;27371;42.686;23.362;2022-11-13T13:30:24;23.67;;;19.13;;
41687;SDS011;27371;42.686;23.362;2022-11-13T13:36:01;21.27;;;18.52;;
41687;SDS011;27371;42.686;23.362;2022-11-13T13:38:49;22.83;;;19.13;;
41687;SDS011;27371;42.686;23.362;2022-11-13T13:41:58;31.30;;;22.40;;
41687;SDS011;27371;42.686;23.362;2022-11-13T13:44:32;31.80;;;25.42;;
41687;SDS011;27371;42.686;23.362;2022-11-13T13:47:05;29.92;;;24.25;;
41687;SDS011;27371;42.686;23.362;2022-11-13T13:49:54;28.58;;;23.30;;
41687;SDS011;27371;42.686;23.362;2022-11-13T13:52:23;26.27;;;21.10;;
41687;SDS011;27371;42.686;23.362;2022-11-13T13:54:53;25.90;;;21.10;;
41687;SDS011;27371;42.686;23.362;2022-11-13T13:57:20;26.67;;;20.80;;
41687;SDS011;27371;42.686;23.362;2022-11-13T13:59:46;25.70;;;19.52;;
41687;SDS011;27371;42.686;23.362;2022-11-13T14:02:19;23.30;;;19.85;;
41687;SDS011;27371;42.686;23.362;2022-11-13T14:04:51;23.45;;;19.23;;
41687;SDS011;27371;42.686;23.362;2022-11-13T14:07:36;22.88;;;18.38;;
41687;SDS011;27371;42.686;23.362;2022-11-13T14:10:15;24.52;;;19.60;;
41687;SDS011;27371;42.686;23.362;2022-11-13T14:12:46;23.23;;;19.13;;
41687;SDS011;27371;42.686;23.362;2022-11-13T14:15:22;21.50;;;18.92;;
41687;SDS011;27371;42.686;23.362;2022-11-13T14:18:04;28.85;;;22.88;;
41687;SDS011;27371;42.686;23.362;2022-11-13T14:20:40;21.77;;;19.15;;
41687;SDS011;27371;42.686;23.362;2022-11-13T14:23:19;23.77;;;18.85;;
41687;SDS011;27371;42.686;23.362;2022-11-13T14:25:52;25.50;;;19.90;;
41687;SDS011;27371;42.686;23.362;2022-11-13T14:28:22;26.58;;;20.63;;
41687;SDS011;27371;42.686;23.362;2022-11-13T14:30:56;24.38;;;20.40;;
41687;SDS011;27371;42.686;23.362;2022-11-13T14:33:25;23.88;;;20.40;;
41687;SDS011;27371;42.686;23.362;2022-11-13T14:35:55;24.25;;;20.48;;
41687;SDS011;27371;42.686;23.362;2022-11-13T14:38:23;23.58;;;19.73;;
41687;SDS011;27371;42.686;23.362;2022-11-13T14:40:51;22.00;;;19.40;;
41687;SDS011;27371;42.686;23.362;2022-11-13T14:43:24;21.85;;;18.83;;
41687;SDS011;27371;42.686;23.362;2022-11-13T14:45:57;27.00;;;20.35;;
41687;SDS011;27371;42.686;23.362;2022-11-13T14:48:25;23.77;;;20.27;;
41687;SDS011;27371;42.686;23.362;2022-11-13T14:50:56;26.30;;;22.20;;
41687;SDS011;27371;42.686;23.362;2022-11-13T14:53:34;28.67;;;21.70;;
41687;SDS011;27371;42.686;23.362;2022-11-13T14:56:02;25.23;;;19.98;;
41687;SDS011;27371;42.686;23.362;2022-11-13T14:58:41;24.58;;;20.20;;
41687;SDS011;27371;42.686;23.362;2022-11-13T15:03:43;29.13;;;21.67;;
41687;SDS011;27371;42.686;23.362;2022-11-13T15:06:22;25.70;;;22.45;;
41687;SDS011;27371;42.686;23.362;2022-11-13T15:08:52;26.83;;;21.80;;
41687;SDS011;27371;42.686;23.362;2022-11-13T15:11:20;27.92;;;22.25;;
41687;SDS011;27371;42.686;23.362;2022-11-13T15:13:47;26.20;;;21.65;;
41687;SDS011;27371;42.686;23.362;2022-11-13T15:16:24;29.40;;;23.50;;
41687;SDS011;27371;42.686;23.362;2022-11-13T15:19:04;26.35;;;22.05;;
41687;SDS011;27371;42.686;23.362;2022-11-13T15:21:35;31.67;;;24.17;;
41687;SDS011;27371;42.686;23.362;2022-11-13T15:24:00;34.30;;;25.33;;
41687;SDS011;27371;42.686;23.362;2022-11-13T15:26:26;33.17;;;25.17;;
41687;SDS011;27371;42.686;23.362;2022-11-13T15:28:54;34.67;;;24.67;;
41687;SDS011;27371;42.686;23.362;2022-11-13T15:32:02;33.40;;;24.92;;
41687;SDS011;27371;42.686;23.362;2022-11-13T15:34:10;37.10;;;26.20;;
41687;SDS011;27371;42.686;23.362;2022-11-13T15:36:37;32.72;;;23.70;;
41687;SDS011;27371;42.686;23.362;2022-11-13T15:39:04;34.03;;;25.25;;
41687;SDS011;27371;42.686;23.362;2022-11-13T15:41:30;32.75;;;24.90;;
41687;SDS011;27371;42.686;23.362;2022-11-13T15:43:58;37.08;;;26.27;;
41687;SDS011;27371;42.686;23.362;2022-11-13T15:46:25;29.92;;;23.42;;
41687;SDS011;27371;42.686;23.362;2022-11-13T15:48:51;34.22;;;25.52;;
41687;SDS011;27371;42.686;23.362;2022-11-13T15:51:20;37.20;;;27.42;;
41687;SDS011;27371;42.686;23.362;2022-11-13T15:53:57;37.15;;;26.23;;
41687;SDS011;27371;42.686;23.362;2022-11-13T15:56:26;34.88;;;26.58;;